Time;durP1;ratioP1;P1;durP2;ratioP2;P2;SDS_P1;SDS_P2;PMS_P1;PMS_P2;Temp;Humidity;BMP_temperature;BMP_pressure;BME280_temperature;BME280_humidity;BME280_pressure;Samples;Min_cycle;Max_cycle;Signal;HPM_P1;HPM_P2
2022/09/10 00:02:04;;;;;;;5.38;2.05;;;;;;;;;;5004517;28;20434;-65
2022/09/10 00:04:30;;;;;;;2.58;1.90;;;;;;;;;;5006292;28;20088;-66
2022/09/10 00:06:56;;;;;;;3.30;1.70;;;;;;;;;;5005180;28;20473;-64
2022/09/10 00:09:22;;;;;;;4.50;1.90;;;;;;;;;;5003795;28;20101;-65
2022/09/10 00:11:47;;;;;;;2.78;1.90;;;;;;;;;;5007056;28;20053;-64
2022/09/10 00:14:19;;;;;;;5.53;1.85;;;;;;;;;;5006351;28;20045;-65
2022/09/10 00:16:45;;;;;;;4.30;2.03;;;;;;;;;;5003250;28;20034;-66
2022/09/10 00:19:11;;;;;;;3.70;1.73;;;;;;;;;;5000148;28;20096;-66
2022/09/10 00:21:37;;;;;;;2.95;1.65;;;;;;;;;;5008602;28;20456;-65
2022/09/10 00:24:04;;;;;;;2.60;1.60;;;;;;;;;;5006722;28;20041;-65
2022/09/10 00:26:34;;;;;;;3.20;1.67;;;;;;;;;;4998533;28;20557;-67
2022/09/10 00:29:00;;;;;;;3.90;1.83;;;;;;;;;;5005039;28;20042;-65
2022/09/10 00:31:26;;;;;;;3.00;1.50;;;;;;;;;;5004635;28;20052;-66
2022/09/10 00:33:53;;;;;;;4.00;1.42;;;;;;;;;;5001691;28;20094;-66
2022/09/10 00:36:24;;;;;;;3.10;1.42;;;;;;;;;;5004488;28;20037;-66
2022/09/10 00:38:52;;;;;;;3.53;1.38;;;;;;;;;;5003832;28;20088;-65
2022/09/10 00:41:19;;;;;;;4.35;1.40;;;;;;;;;;5006837;28;20501;-65
2022/09/10 00:43:49;;;;;;;2.00;1.30;;;;;;;;;;5004940;28;20115;-65
2022/09/10 00:46:25;;;;;;;4.97;1.80;;;;;;;;;;5001841;28;20038;-66
2022/09/10 00:48:55;;;;;;;3.63;1.45;;;;;;;;;;4996707;28;20046;-65
2022/09/10 00:51:21;;;;;;;5.47;1.40;;;;;;;;;;5003494;28;20303;-65
2022/09/10 00:53:48;;;;;;;4.90;1.38;;;;;;;;;;4998871;28;20045;-65
2022/09/10 00:56:13;;;;;;;4.00;1.40;;;;;;;;;;4999105;28;20129;-66
2022/09/10 00:58:41;;;;;;;2.58;1.60;;;;;;;;;;4999932;28;20050;-65
2022/09/10 01:01:07;;;;;;;4.13;1.60;;;;;;;;;;4998037;28;20700;-65
2022/09/10 01:03:32;;;;;;;4.55;1.70;;;;;;;;;;5003048;28;20080;-65
2022/09/10 01:05:58;;;;;;;3.17;1.42;;;;;;;;;;5001128;28;20073;-65
2022/09/10 01:08:26;;;;;;;3.88;1.60;;;;;;;;;;4996995;28;20037;-65
2022/09/10 01:10:57;;;;;;;1.88;1.38;;;;;;;;;;4997981;28;20575;-65
2022/09/10 01:14:04;;;;;;;1.70;1.60;;;;;;;;;;4997546;28;20033;-65
2022/09/10 01:16:51;;;;;;;2.13;1.50;;;;;;;;;;4996806;28;20053;-66
2022/09/10 01:19:32;;;;;;;3.05;1.52;;;;;;;;;;4997011;28;20041;-65
2022/09/10 01:22:33;;;;;;;3.15;1.50;;;;;;;;;;5000542;28;20445;-65
2022/09/10 01:25:36;;;;;;;5.05;1.50;;;;;;;;;;4987508;28;20526;-65
2022/09/10 01:28:07;;;;;;;3.97;1.80;;;;;;;;;;4998907;28;20037;-65
2022/09/10 01:30:42;;;;;;;3.95;1.60;;;;;;;;;;4997624;28;20034;-63
2022/09/10 01:33:23;;;;;;;3.15;1.35;;;;;;;;;;5000935;28;20025;-66
2022/09/10 01:36:00;;;;;;;3.28;1.60;;;;;;;;;;4996133;28;20501;-65
2022/09/10 01:38:31;;;;;;;3.42;1.90;;;;;;;;;;4996948;28;20053;-65
2022/09/10 01:40:58;;;;;;;5.07;1.65;;;;;;;;;;4998249;28;20046;-65
2022/09/10 01:43:23;;;;;;;4.78;1.60;;;;;;;;;;4996661;28;20576;-65
2022/09/10 01:46:11;;;;;;;3.95;1.83;;;;;;;;;;4992897;28;20038;-67
2022/09/10 01:49:02;;;;;;;6.65;1.50;;;;;;;;;;4997466;28;20038;-67
2022/09/10 01:51:40;;;;;;;4.45;1.70;;;;;;;;;;4994836;28;20445;-67
2022/09/10 01:54:27;;;;;;;6.90;1.63;;;;;;;;;;4998436;28;20030;-65
2022/09/10 01:57:20;;;;;;;3.63;1.77;;;;;;;;;;4993430;28;20438;-66
2022/09/10 02:00:14;;;;;;;6.05;1.70;;;;;;;;;;4996562;28;20057;-64
2022/09/10 02:02:49;;;;;;;7.38;1.80;;;;;;;;;;4994992;28;20482;-64
2022/09/10 02:05:18;;;;;;;5.57;1.60;;;;;;;;;;4996398;28;20056;-66
2022/09/10 02:07:46;;;;;;;8.80;1.73;;;;;;;;;;4995208;28;20037;-65
2022/09/10 02:10:12;;;;;;;5.18;1.70;;;;;;;;;;4994787;28;20528;-66
2022/09/10 02:12:38;;;;;;;7.78;2.13;;;;;;;;;;4992927;28;20038;-68
2022/09/10 02:15:07;;;;;;;6.63;2.30;;;;;;;;;;4994628;28;20030;-66
2022/09/10 02:17:35;;;;;;;4.15;1.90;;;;;;;;;;4993283;28;20026;-66
2022/09/10 02:20:04;;;;;;;4.32;2.05;;;;;;;;;;4994327;28;20049;-66
2022/09/10 02:22:32;;;;;;;3.97;2.03;;;;;;;;;;4997134;28;20135;-66
2022/09/10 02:24:57;;;;;;;3.42;2.20;;;;;;;;;;4994023;28;20437;-65
2022/09/10 02:27:23;;;;;;;5.90;2.00;;;;;;;;;;4992703;28;20030;-67
2022/09/10 02:29:48;;;;;;;5.70;2.05;;;;;;;;;;4996514;28;20036;-65
2022/09/10 02:32:14;;;;;;;3.50;1.88;;;;;;;;;;4997008;28;20073;-66
2022/09/10 02:34:40;;;;;;;4.47;2.10;;;;;;;;;;4992482;28;20437;-67
2022/09/10 02:37:05;;;;;;;2.70;1.77;;;;;;;;;;4996316;28;20038;-66
2022/09/10 02:39:31;;;;;;;7.90;1.80;;;;;;;;;;4997950;28;20038;-66
2022/09/10 02:41:57;;;;;;;9.27;2.30;;;;;;;;;;5000193;28;20482;-65
2022/09/10 02:44:23;;;;;;;5.57;1.80;;;;;;;;;;5006759;28;20033;-70
2022/09/10 02:46:48;;;;;;;7.88;1.88;;;;;;;;;;5001538;28;20046;-66
2022/09/10 02:49:14;;;;;;;5.95;1.60;;;;;;;;;;5004370;28;20712;-65
2022/09/10 02:51:41;;;;;;;4.28;1.77;;;;;;;;;;5003452;28;20037;-65
2022/09/10 02:54:07;;;;;;;5.18;2.10;;;;;;;;;;5003556;28;20037;-66
2022/09/10 02:56:33;;;;;;;3.83;1.50;;;;;;;;;;5002720;28;20034;-65
2022/09/10 02:58:58;;;;;;;4.20;1.73;;;;;;;;;;4998049;28;20044;-65
2022/09/10 03:01:24;;;;;;;5.15;2.25;;;;;;;;;;5002574;28;20034;-66
2022/09/10 03:03:51;;;;;;;3.15;1.92;;;;;;;;;;5001329;28;20854;-65
2022/09/10 03:06:17;;;;;;;5.25;1.85;;;;;;;;;;4997356;28;20387;-69
2022/09/10 03:08:43;;;;;;;7.22;2.00;;;;;;;;;;4998437;28;20492;-65
2022/09/10 03:11:08;;;;;;;4.15;2.35;;;;;;;;;;4998175;28;20702;-65
2022/09/10 03:13:34;;;;;;;3.85;1.92;;;;;;;;;;4995277;28;20045;-66
2022/09/10 03:16:02;;;;;;;4.18;2.10;;;;;;;;;;4996474;28;20046;-65
2022/09/10 03:18:29;;;;;;;4.95;1.95;;;;;;;;;;4998891;28;20042;-65
2022/09/10 03:21:07;;;;;;;5.97;1.90;;;;;;;;;;4998694;28;20032;-65
2022/09/10 03:23:32;;;;;;;4.65;1.67;;;;;;;;;;5002410;28;20061;-65
2022/09/10 03:25:58;;;;;;;4.78;1.88;;;;;;;;;;5002889;28;20044;-65
2022/09/10 03:28:25;;;;;;;4.47;1.50;;;;;;;;;;5005582;28;20456;-65
2022/09/10 03:30:51;;;;;;;5.72;1.83;;;;;;;;;;5003083;28;20041;-66
2022/09/10 03:33:20;;;;;;;4.47;1.85;;;;;;;;;;5006303;28;20135;-66
2022/09/10 03:35:45;;;;;;;4.50;1.60;;;;;;;;;;5004554;28;20029;-66
2022/09/10 03:38:11;;;;;;;3.75;1.50;;;;;;;;;;5004634;28;20058;-65
2022/09/10 03:40:36;;;;;;;6.38;1.90;;;;;;;;;;5002704;28;20047;-66
2022/09/10 03:43:02;;;;;;;4.55;2.10;;;;;;;;;;5002902;28;20061;-65
2022/09/10 03:45:27;;;;;;;8.20;1.95;;;;;;;;;;5003809;28;20041;-66
2022/09/10 03:47:53;;;;;;;3.92;2.08;;;;;;;;;;5006378;28;20109;-66
2022/09/10 03:50:19;;;;;;;2.05;1.85;;;;;;;;;;5005554;28;20410;-66
2022/09/10 03:52:45;;;;;;;4.07;1.80;;;;;;;;;;5003558;28;20115;-65
2022/09/10 03:55:10;;;;;;;4.35;2.08;;;;;;;;;;5004373;28;20103;-65
2022/09/10 03:57:37;;;;;;;4.25;1.90;;;;;;;;;;5004877;28;20406;-65
2022/09/10 04:00:04;;;;;;;3.90;1.80;;;;;;;;;;5001724;28;20034;-66
2022/09/10 04:02:29;;;;;;;6.20;1.80;;;;;;;;;;5000040;28;20072;-66
2022/09/10 04:04:55;;;;;;;6.13;2.25;;;;;;;;;;5003212;28;20110;-66
2022/09/10 04:07:20;;;;;;;5.15;1.90;;;;;;;;;;5003667;28;20096;-64
2022/09/10 04:09:46;;;;;;;4.15;2.00;;;;;;;;;;5000410;28;20431;-65
2022/09/10 04:12:11;;;;;;;4.68;2.15;;;;;;;;;;5002564;28;20027;-67
2022/09/10 04:14:37;;;;;;;3.28;1.52;;;;;;;;;;5000821;28;20497;-65
2022/09/10 04:17:02;;;;;;;3.75;1.95;;;;;;;;;;4986092;28;20127;-66
2022/09/10 04:19:28;;;;;;;6.75;1.80;;;;;;;;;;5003000;28;20093;-66
2022/09/10 04:21:54;;;;;;;3.33;2.00;;;;;;;;;;4997595;28;20466;-66
2022/09/10 04:24:19;;;;;;;9.23;2.30;;;;;;;;;;5004425;28;20120;-66
2022/09/10 04:26:45;;;;;;;6.30;2.05;;;;;;;;;;5002709;28;20481;-65
2022/09/10 04:29:11;;;;;;;3.50;2.03;;;;;;;;;;4999270;28;20407;-69
2022/09/10 04:31:37;;;;;;;3.47;1.65;;;;;;;;;;5001531;28;20042;-64
2022/09/10 04:34:03;;;;;;;9.90;2.33;;;;;;;;;;5003243;28;20180;-67
2022/09/10 04:36:29;;;;;;;5.47;2.17;;;;;;;;;;5008349;28;20038;-64
2022/09/10 04:38:54;;;;;;;3.75;2.17;;;;;;;;;;5003516;28;20036;-65
2022/09/10 04:41:20;;;;;;;3.03;2.03;;;;;;;;;;5000692;28;20042;-65
2022/09/10 04:43:45;;;;;;;4.68;2.38;;;;;;;;;;5003106;28;20137;-65
2022/09/10 04:46:11;;;;;;;9.98;2.50;;;;;;;;;;5004703;28;20516;-65
2022/09/10 04:48:37;;;;;;;3.15;2.00;;;;;;;;;;5005248;28;20042;-65
2022/09/10 04:51:03;;;;;;;3.15;1.95;;;;;;;;;;5001828;28;20053;-65
2022/09/10 04:53:30;;;;;;;4.20;2.08;;;;;;;;;;5003735;28;20042;-65
2022/09/10 04:55:56;;;;;;;7.80;2.20;;;;;;;;;;5003722;28;20034;-65
2022/09/10 04:58:22;;;;;;;4.97;2.40;;;;;;;;;;5001129;28;20072;-65
2022/09/10 05:00:47;;;;;;;6.32;2.30;;;;;;;;;;5002119;28;20038;-65
2022/09/10 05:03:13;;;;;;;5.78;2.28;;;;;;;;;;5003484;28;20111;-66
2022/09/10 05:05:39;;;;;;;6.70;2.20;;;;;;;;;;5002692;28;20026;-66
2022/09/10 05:08:07;;;;;;;4.78;2.50;;;;;;;;;;5000892;28;20037;-65
2022/09/10 05:10:35;;;;;;;5.88;2.17;;;;;;;;;;5002623;28;20042;-66
2022/09/10 05:13:00;;;;;;;8.07;2.33;;;;;;;;;;4997806;28;20108;-67
2022/09/10 05:15:25;;;;;;;4.78;2.17;;;;;;;;;;4999679;28;20066;-66
2022/09/10 05:17:51;;;;;;;4.10;2.22;;;;;;;;;;5003163;28;20025;-65
2022/09/10 05:20:16;;;;;;;4.70;2.40;;;;;;;;;;5002188;28;20104;-66
2022/09/10 05:22:41;;;;;;;3.15;2.08;;;;;;;;;;5004337;28;20410;-63
2022/09/10 05:25:08;;;;;;;4.90;2.25;;;;;;;;;;5007927;28;20418;-66
2022/09/10 05:27:33;;;;;;;6.47;2.47;;;;;;;;;;5001018;28;20527;-65
2022/09/10 05:30:00;;;;;;;7.45;2.78;;;;;;;;;;4999284;28;20022;-65
2022/09/10 05:32:27;;;;;;;5.88;2.67;;;;;;;;;;4998379;28;20030;-65
2022/09/10 05:34:53;;;;;;;5.38;2.63;;;;;;;;;;5002216;28;20052;-65
2022/09/10 05:37:18;;;;;;;6.43;2.60;;;;;;;;;;5001659;28;20054;-65
2022/09/10 05:39:46;;;;;;;6.80;2.60;;;;;;;;;;5002648;28;20056;-65
2022/09/10 05:42:11;;;;;;;4.28;2.53;;;;;;;;;;5003226;28;20033;-65
2022/09/10 05:44:36;;;;;;;5.00;2.88;;;;;;;;;;5003637;28;20053;-65
2022/09/10 05:47:02;;;;;;;5.20;2.55;;;;;;;;;;5005337;28;20073;-65
2022/09/10 05:49:29;;;;;;;8.40;3.20;;;;;;;;;;5003029;28;20158;-67
2022/09/10 05:51:54;;;;;;;8.65;3.22;;;;;;;;;;5004553;28;20438;-64
2022/09/10 05:54:20;;;;;;;5.72;2.80;;;;;;;;;;5004579;28;20112;-67
2022/09/10 05:56:45;;;;;;;3.55;2.63;;;;;;;;;;5002563;28;20021;-67
2022/09/10 05:59:11;;;;;;;6.18;2.90;;;;;;;;;;4998566;28;20045;-65
2022/09/10 06:01:36;;;;;;;4.95;3.00;;;;;;;;;;5000170;28;20037;-65
2022/09/10 06:04:03;;;;;;;4.07;2.60;;;;;;;;;;4998925;28;20353;-65
2022/09/10 06:06:28;;;;;;;7.90;3.00;;;;;;;;;;5002391;28;20073;-65
2022/09/10 06:08:54;;;;;;;3.10;2.63;;;;;;;;;;5004398;28;20479;-65
2022/09/10 06:11:20;;;;;;;4.82;2.90;;;;;;;;;;5000906;28;20786;-65
2022/09/10 06:13:46;;;;;;;4.85;2.60;;;;;;;;;;4999005;28;20069;-66
2022/09/10 06:16:14;;;;;;;2.45;2.10;;;;;;;;;;4999743;28;20520;-66
2022/09/10 06:18:41;;;;;;;3.70;2.42;;;;;;;;;;5001362;28;20505;-65
2022/09/10 06:21:08;;;;;;;3.47;2.22;;;;;;;;;;5007607;28;20088;-66
2022/09/10 06:23:35;;;;;;;3.50;2.30;;;;;;;;;;4998355;28;20034;-66
2022/09/10 06:26:10;;;;;;;4.32;2.35;;;;;;;;;;5000430;28;20513;-65
2022/09/10 06:28:35;;;;;;;6.72;2.15;;;;;;;;;;5000000;28;20125;-65
2022/09/10 06:31:04;;;;;;;3.63;2.22;;;;;;;;;;5001762;28;20196;-65
2022/09/10 06:33:30;;;;;;;4.13;2.40;;;;;;;;;;5001183;28;20045;-64
2022/09/10 06:35:58;;;;;;;6.82;2.28;;;;;;;;;;5000985;28;20025;-65
2022/09/10 06:38:26;;;;;;;4.88;2.10;;;;;;;;;;5003312;28;20042;-64
2022/09/10 06:40:53;;;;;;;5.13;2.25;;;;;;;;;;4998059;28;20108;-65
2022/09/10 06:43:23;;;;;;;3.83;1.88;;;;;;;;;;4999201;28;20046;-65
2022/09/10 06:45:51;;;;;;;4.85;2.30;;;;;;;;;;5005662;28;20038;-65
2022/09/10 06:48:17;;;;;;;3.58;1.90;;;;;;;;;;4998621;28;20064;-65
2022/09/10 06:51:09;;;;;;;2.25;1.98;;;;;;;;;;5003010;28;20018;-68
2022/09/10 06:53:36;;;;;;;5.78;2.22;;;;;;;;;;5001281;28;20054;-65
2022/09/10 06:56:04;;;;;;;3.92;1.80;;;;;;;;;;5001638;28;20046;-65
2022/09/10 06:58:32;;;;;;;5.60;2.30;;;;;;;;;;5007892;28;20038;-67
2022/09/10 07:00:58;;;;;;;4.03;2.13;;;;;;;;;;5004766;28;20259;-66
2022/09/10 07:03:23;;;;;;;1.95;1.80;;;;;;;;;;5003112;28;20128;-66
2022/09/10 07:05:52;;;;;;;7.22;2.20;;;;;;;;;;5008669;28;20501;-67
2022/09/10 07:08:19;;;;;;;3.20;1.67;;;;;;;;;;5006063;28;20073;-66
2022/09/10 07:10:45;;;;;;;5.95;2.05;;;;;;;;;;5003825;28;20418;-66
2022/09/10 07:13:11;;;;;;;2.47;2.10;;;;;;;;;;5000854;28;21630;-66
2022/09/10 07:15:48;;;;;;;3.75;2.40;;;;;;;;;;5007903;28;20053;-65
2022/09/10 07:18:13;;;;;;;5.15;2.33;;;;;;;;;;5004270;28;20022;-65
2022/09/10 07:20:42;;;;;;;3.47;2.00;;;;;;;;;;5009990;28;20096;-65
2022/09/10 07:23:12;;;;;;;5.05;3.10;;;;;;;;;;5005375;28;20390;-65
2022/09/10 07:25:37;;;;;;;3.83;2.03;;;;;;;;;;5005608;28;20041;-65
2022/09/10 07:28:03;;;;;;;5.03;1.95;;;;;;;;;;5004111;28;20060;-66
2022/09/10 07:30:28;;;;;;;2.17;1.40;;;;;;;;;;5002889;28;20183;-65
2022/09/10 07:32:54;;;;;;;2.30;1.50;;;;;;;;;;5001000;28;20352;-66
2022/09/10 07:35:20;;;;;;;3.63;1.42;;;;;;;;;;5007588;28;20038;-65
2022/09/10 07:37:45;;;;;;;2.10;1.20;;;;;;;;;;5000399;28;20233;-64
2022/09/10 07:40:11;;;;;;;5.15;1.40;;;;;;;;;;5007933;28;20371;-65
2022/09/10 07:42:37;;;;;;;5.20;1.30;;;;;;;;;;4999092;28;20046;-65
2022/09/10 07:45:04;;;;;;;7.78;1.63;;;;;;;;;;5006001;28;20034;-65
2022/09/10 07:47:30;;;;;;;2.17;1.20;;;;;;;;;;5004687;28;20045;-65
2022/09/10 07:49:55;;;;;;;3.13;1.10;;;;;;;;;;4983807;28;20066;-66
2022/09/10 07:52:21;;;;;;;4.80;1.40;;;;;;;;;;4980994;28;20062;-65
2022/09/10 07:54:46;;;;;;;2.72;1.35;;;;;;;;;;4984472;28;20418;-64
2022/09/10 07:57:12;;;;;;;2.47;1.00;;;;;;;;;;4980312;28;20541;-65
2022/09/10 07:59:38;;;;;;;3.78;1.35;;;;;;;;;;4978545;28;20125;-65
2022/09/10 08:02:05;;;;;;;2.55;1.20;;;;;;;;;;4978545;28;20117;-67
2022/09/10 08:04:31;;;;;;;2.78;1.10;;;;;;;;;;4980874;28;20042;-65
2022/09/10 08:06:57;;;;;;;3.55;0.93;;;;;;;;;;4983238;28;20510;-65
2022/09/10 08:09:23;;;;;;;4.57;1.15;;;;;;;;;;4981854;28;20033;-64
2022/09/10 08:11:48;;;;;;;3.33;1.10;;;;;;;;;;4983326;28;20026;-65
2022/09/10 08:14:14;;;;;;;1.70;0.98;;;;;;;;;;4979900;28;20034;-64
2022/09/10 08:16:39;;;;;;;3.55;1.30;;;;;;;;;;4976997;28;20050;-64
2022/09/10 08:19:05;;;;;;;4.43;1.10;;;;;;;;;;4981798;28;20481;-66
2022/09/10 08:21:31;;;;;;;1.60;0.82;;;;;;;;;;4979753;28;20510;-64
2022/09/10 08:23:56;;;;;;;4.07;1.10;;;;;;;;;;4984883;28;20034;-64
2022/09/10 08:26:24;;;;;;;2.85;0.93;;;;;;;;;;4978448;28;20040;-64
2022/09/10 08:28:50;;;;;;;1.48;0.82;;;;;;;;;;4979753;28;20046;-65
2022/09/10 08:31:16;;;;;;;1.05;0.90;;;;;;;;;;4978474;28;20042;-64
2022/09/10 08:33:47;;;;;;;2.90;1.10;;;;;;;;;;4977910;28;20042;-65
2022/09/10 08:36:15;;;;;;;2.63;1.02;;;;;;;;;;4980892;28;20490;-66
2022/09/10 08:38:44;;;;;;;2.90;0.85;;;;;;;;;;4981764;28;20090;-65
2022/09/10 08:41:20;;;;;;;3.85;1.02;;;;;;;;;;4981658;28;20546;-66
2022/09/10 08:43:57;;;;;;;3.58;1.30;;;;;;;;;;4982543;28;20062;-67
2022/09/10 08:46:26;;;;;;;2.13;1.10;;;;;;;;;;4983893;28;20057;-66
2022/09/10 08:49:03;;;;;;;3.85;2.90;;;;;;;;;;4979487;28;20046;-66
2022/09/10 08:51:38;;;;;;;3.53;1.35;;;;;;;;;;4982722;28;20553;-65
2022/09/10 08:54:15;;;;;;;2.97;1.20;;;;;;;;;;4978488;28;20546;-65
2022/09/10 08:56:41;;;;;;;2.03;0.98;;;;;;;;;;4994517;28;20117;-66
2022/09/10 08:59:25;;;;;;;3.05;1.23;;;;;;;;;;4979553;28;20038;-66
2022/09/10 09:01:58;;;;;;;2.10;0.80;;;;;;;;;;4979213;28;20046;-67
2022/09/10 09:04:44;;;;;;;3.72;1.02;;;;;;;;;;4978325;28;20044;-66
2022/09/10 09:07:18;;;;;;;3.10;1.00;;;;;;;;;;4979714;28;20513;-66
2022/09/10 09:09:46;;;;;;;6.65;1.77;;;;;;;;;;4980399;28;20506;-66
2022/09/10 09:12:59;;;;;;;3.13;1.00;;;;;;;;;;4979571;28;21739;-67
2022/09/10 09:15:31;;;;;;;4.28;1.20;;;;;;;;;;4951940;28;20042;-65
2022/09/10 09:18:09;;;;;;;3.35;1.10;;;;;;;;;;4978055;28;20558;-66
2022/09/10 09:20:47;;;;;;;5.53;1.10;;;;;;;;;;4978131;28;20422;-65
2022/09/10 09:23:28;;;;;;;5.07;1.27;;;;;;;;;;4976901;28;20093;-64
2022/09/10 09:25:55;;;;;;;4.40;1.10;;;;;;;;;;4979774;28;20338;-66
2022/09/10 09:28:42;;;;;;;3.47;1.15;;;;;;;;;;4980903;28;20053;-66
2022/09/10 09:31:13;;;;;;;4.60;1.15;;;;;;;;;;4980052;28;20053;-65
2022/09/10 09:33:40;;;;;;;10.43;1.20;;;;;;;;;;4981590;28;20045;-66
2022/09/10 09:36:06;;;;;;;5.70;1.77;;;;;;;;;;4981334;28;20185;-63
2022/09/10 09:38:41;;;;;;;4.38;1.48;;;;;;;;;;4981550;28;20492;-64
2022/09/10 09:41:19;;;;;;;5.13;1.30;;;;;;;;;;5000421;28;20103;-63
2022/09/10 09:43:59;;;;;;;5.57;1.15;;;;;;;;;;5014530;28;20077;-65
2022/09/10 09:46:25;;;;;;;5.00;0.88;;;;;;;;;;5000332;28;20445;-63
2022/09/10 09:48:57;;;;;;;5.88;1.15;;;;;;;;;;5005967;28;20103;-64
2022/09/10 09:51:24;;;;;;;4.13;1.10;;;;;;;;;;5001553;28;20018;-64
2022/09/10 09:53:52;;;;;;;3.78;1.15;;;;;;;;;;5004029;28;20068;-64
2022/09/10 09:56:29;;;;;;;7.30;1.48;;;;;;;;;;5007881;28;20034;-64
2022/09/10 09:58:57;;;;;;;3.22;1.08;;;;;;;;;;5007751;28;20034;-64
2022/09/10 10:01:25;;;;;;;3.92;0.98;;;;;;;;;;5007668;28;20502;-66
2022/09/10 10:03:58;;;;;;;3.55;1.05;;;;;;;;;;5005552;28;20038;-65
2022/09/10 10:06:27;;;;;;;4.80;1.33;;;;;;;;;;5008967;28;20065;-64
2022/09/10 10:08:56;;;;;;;3.72;1.08;;;;;;;;;;5005404;28;20464;-62
2022/09/10 10:11:36;;;;;;;3.90;0.77;;;;;;;;;;5008261;28;21263;-67
2022/09/10 10:14:11;;;;;;;6.15;1.02;;;;;;;;;;5008121;28;20038;-66
2022/09/10 10:16:37;;;;;;;4.78;0.90;;;;;;;;;;5006236;28;20054;-65
2022/09/10 10:19:22;;;;;;;4.95;0.90;;;;;;;;;;5006137;28;20036;-67
2022/09/10 10:21:48;;;;;;;4.35;0.82;;;;;;;;;;5003994;28;20308;-67
2022/09/10 10:24:32;;;;;;;4.22;1.50;;;;;;;;;;4997294;28;20036;-65
2022/09/10 10:26:58;;;;;;;2.72;1.20;;;;;;;;;;5001428;28;20034;-65
2022/09/10 10:29:25;;;;;;;6.32;1.05;;;;;;;;;;5002162;28;20128;-65
2022/09/10 10:31:52;;;;;;;5.03;1.45;;;;;;;;;;4998856;28;20061;-64
2022/09/10 10:34:36;;;;;;;4.50;1.00;;;;;;;;;;5002071;28;20121;-64
2022/09/10 10:37:04;;;;;;;2.03;0.80;;;;;;;;;;5003395;28;20517;-65
2022/09/10 10:40:08;;;;;;;2.15;0.70;;;;;;;;;;4997395;28;20513;-65
2022/09/10 10:42:45;;;;;;;3.45;0.80;;;;;;;;;;4999899;28;20046;-67
2022/09/10 10:45:17;;;;;;;3.17;0.45;;;;;;;;;;5005182;28;20086;-65
2022/09/10 10:47:50;;;;;;;1.45;0.63;;;;;;;;;;5004090;28;20036;-65
2022/09/10 10:50:20;;;;;;;0.75;0.30;;;;;;;;;;4997399;28;20042;-66
2022/09/10 10:53:12;;;;;;;1.50;0.50;;;;;;;;;;5004161;28;20122;-66
2022/09/10 10:55:44;;;;;;;2.43;0.33;;;;;;;;;;5002832;28;20050;-65
2022/09/10 10:58:23;;;;;;;4.18;0.50;;;;;;;;;;5004128;28;20033;-66
2022/09/10 11:00:57;;;;;;;3.38;0.60;;;;;;;;;;4995437;28;20417;-65
2022/09/10 11:03:38;;;;;;;1.27;0.40;;;;;;;;;;4997242;28;20550;-65
2022/09/10 11:06:09;;;;;;;2.25;0.70;;;;;;;;;;4992516;28;20120;-65
2022/09/10 11:08:41;;;;;;;0.45;0.40;;;;;;;;;;4997069;28;20062;-65
2022/09/10 11:11:14;;;;;;;0.82;0.40;;;;;;;;;;4995779;28;20053;-65
2022/09/10 11:13:45;;;;;;;2.00;0.60;;;;;;;;;;4996200;28;20077;-66
2022/09/10 11:16:20;;;;;;;1.00;0.38;;;;;;;;;;4999497;28;20049;-65
2022/09/10 11:18:57;;;;;;;1.30;0.30;;;;;;;;;;4992654;28;20046;-66
2022/09/10 11:21:49;;;;;;;0.65;0.30;;;;;;;;;;4999936;28;20033;-65
2022/09/10 11:24:47;;;;;;;1.00;0.47;;;;;;;;;;4992796;28;20033;-66
2022/09/10 11:27:25;;;;;;;0.45;0.45;;;;;;;;;;4991740;28;20355;-67
2022/09/10 11:30:02;;;;;;;1.25;0.52;;;;;;;;;;4996252;28;20668;-65
2022/09/10 11:32:31;;;;;;;1.58;0.50;;;;;;;;;;4991950;28;20145;-65
2022/09/10 11:35:05;;;;;;;0.80;0.38;;;;;;;;;;4990141;28;20139;-65
2022/09/10 11:37:31;;;;;;;1.38;0.50;;;;;;;;;;4996315;28;20039;-65
2022/09/10 11:40:01;;;;;;;2.88;0.57;;;;;;;;;;4996474;28;20100;-65
2022/09/10 11:42:39;;;;;;;1.67;0.50;;;;;;;;;;4993512;28;20101;-65
2022/09/10 11:45:41;;;;;;;0.65;0.40;;;;;;;;;;5000200;28;20030;-65
2022/09/10 11:48:30;;;;;;;1.10;0.55;;;;;;;;;;4994449;28;20045;-65
2022/09/10 11:51:05;;;;;;;1.63;0.52;;;;;;;;;;4995449;28;20029;-64
2022/09/10 11:53:30;;;;;;;2.67;0.50;;;;;;;;;;4999465;28;21555;-64
2022/09/10 11:56:25;;;;;;;1.65;0.60;;;;;;;;;;5001687;28;20038;-64
2022/09/10 11:59:18;;;;;;;0.60;0.40;;;;;;;;;;4992818;28;20046;-65
2022/09/10 12:02:16;;;;;;;0.55;0.30;;;;;;;;;;5001375;28;20070;-64
2022/09/10 12:05:03;;;;;;;1.60;0.40;;;;;;;;;;4999325;28;20034;-64
2022/09/10 12:07:43;;;;;;;0.50;0.30;;;;;;;;;;5002723;28;20579;-64
2022/09/10 12:10:38;;;;;;;0.63;0.50;;;;;;;;;;4990760;28;20394;-64
2022/09/10 12:13:20;;;;;;;1.50;0.45;;;;;;;;;;5002491;28;20038;-65
2022/09/10 12:16:01;;;;;;;0.40;0.32;;;;;;;;;;5003520;28;20038;-67
2022/09/10 12:18:49;;;;;;;0.63;0.40;;;;;;;;;;5003864;28;20133;-65
2022/09/10 12:21:24;;;;;;;0.20;0.20;;;;;;;;;;5001205;28;20030;-67
2022/09/10 12:23:49;;;;;;;1.02;0.20;;;;;;;;;;5005337;28;20041;-68
2022/09/10 12:26:18;;;;;;;0.30;0.30;;;;;;;;;;5006838;28;20460;-70
2022/09/10 12:28:48;;;;;;;2.05;0.52;;;;;;;;;;5005288;28;20121;-68
2022/09/10 12:31:18;;;;;;;3.10;0.30;;;;;;;;;;5003800;28;20100;-68
2022/09/10 12:33:44;;;;;;;1.17;0.40;;;;;;;;;;5003263;28;20038;-66
2022/09/10 12:36:13;;;;;;;1.30;0.50;;;;;;;;;;5007944;28;20021;-65
2022/09/10 12:39:03;;;;;;;1.10;0.60;;;;;;;;;;5003960;28;20062;-68
2022/09/10 12:41:29;;;;;;;0.70;0.50;;;;;;;;;;5000393;28;20042;-65
2022/09/10 12:44:03;;;;;;;1.10;0.45;;;;;;;;;;5005214;28;20363;-69
2022/09/10 12:46:30;;;;;;;3.40;1.33;;;;;;;;;;5003151;28;20056;-65
2022/09/10 12:48:56;;;;;;;0.80;0.40;;;;;;;;;;5008219;28;20037;-70
2022/09/10 12:51:55;;;;;;;0.68;0.30;;;;;;;;;;5002884;28;20030;-68
2022/09/10 12:54:50;;;;;;;0.50;0.25;;;;;;;;;;5004039;28;20029;-65
2022/09/10 12:57:24;;;;;;;0.68;0.35;;;;;;;;;;4999921;28;20458;-66
2022/09/10 13:00:20;;;;;;;2.20;0.30;;;;;;;;;;5007395;28;20069;-69
2022/09/10 13:03:08;;;;;;;0.63;0.30;;;;;;;;;;5002256;28;20511;-65
2022/09/10 13:05:43;;;;;;;1.20;0.30;;;;;;;;;;5003671;28;20604;-65
2022/09/10 13:08:29;;;;;;;1.17;0.20;;;;;;;;;;4998802;28;20049;-67
2022/09/10 13:10:58;;;;;;;0.73;0.52;;;;;;;;;;5003630;28;20026;-67
2022/09/10 13:13:42;;;;;;;0.52;0.30;;;;;;;;;;5001318;28;20458;-66
2022/09/10 13:16:16;;;;;;;3.25;0.38;;;;;;;;;;5002880;28;20363;-65
2022/09/10 13:18:43;;;;;;;1.23;0.65;;;;;;;;;;4999105;28;20530;-65
2022/09/10 13:21:23;;;;;;;0.40;0.40;;;;;;;;;;5002212;28;20022;-67
2022/09/10 13:23:51;;;;;;;0.75;0.40;;;;;;;;;;5001339;28;20040;-68
2022/09/10 13:26:37;;;;;;;1.75;0.55;;;;;;;;;;5004740;28;20044;-71
2022/09/10 13:29:32;;;;;;;0.82;0.40;;;;;;;;;;5007234;28;20125;-66
2022/09/10 13:32:03;;;;;;;6.50;0.70;;;;;;;;;;5003547;28;20544;-70
2022/09/10 13:34:49;;;;;;;0.60;0.60;;;;;;;;;;5002196;28;20395;-70
2022/09/10 13:37:40;;;;;;;1.85;0.47;;;;;;;;;;5002575;28;20042;-70
2022/09/10 13:40:31;;;;;;;0.68;0.40;;;;;;;;;;5002040;28;20095;-73
2022/09/10 13:43:32;;;;;;;0.60;0.40;;;;;;;;;;4999188;28;20042;-69
2022/09/10 13:46:01;;;;;;;0.63;0.30;;;;;;;;;;5000849;28;20044;-69
2022/09/10 13:48:33;;;;;;;0.82;0.40;;;;;;;;;;5000933;28;20076;-70
2022/09/10 13:51:14;;;;;;;0.80;0.50;;;;;;;;;;5015633;28;20037;-67
2022/09/10 13:53:42;;;;;;;5.40;0.95;;;;;;;;;;4993302;28;20081;-70
2022/09/10 13:56:18;;;;;;;0.40;0.35;;;;;;;;;;4999566;28;20034;-70
2022/09/10 13:58:48;;;;;;;0.65;0.40;;;;;;;;;;5002559;28;20042;-68
2022/09/10 14:01:14;;;;;;;0.45;0.40;;;;;;;;;;4996190;28;20748;-69
2022/09/10 14:03:40;;;;;;;0.50;0.50;;;;;;;;;;5000028;28;20080;-67
2022/09/10 14:06:15;;;;;;;0.50;0.40;;;;;;;;;;5003240;28;20026;-67
2022/09/10 14:08:51;;;;;;;0.63;0.45;;;;;;;;;;5002867;28;20029;-71
2022/09/10 14:11:28;;;;;;;1.02;0.47;;;;;;;;;;4997534;28;20092;-69
2022/09/10 14:14:11;;;;;;;1.30;0.45;;;;;;;;;;5000993;28;20492;-72
2022/09/10 14:16:44;;;;;;;1.40;0.43;;;;;;;;;;4996996;28;20136;-69
2022/09/10 14:19:29;;;;;;;1.20;0.70;;;;;;;;;;4994464;28;20065;-72
2022/09/10 14:21:56;;;;;;;1.63;0.63;;;;;;;;;;4997758;28;20056;-72
2022/09/10 14:24:48;;;;;;;3.20;0.70;;;;;;;;;;4999050;28;20021;-69
2022/09/10 14:27:33;;;;;;;3.70;0.70;;;;;;;;;;5001872;28;20104;-69
2022/09/10 14:30:21;;;;;;;1.55;0.57;;;;;;;;;;4998678;28;20099;-69
2022/09/10 14:32:48;;;;;;;1.33;0.73;;;;;;;;;;5003453;28;20049;-72
2022/09/10 14:35:41;;;;;;;2.75;0.73;;;;;;;;;;5000983;28;20038;-69
2022/09/10 14:38:24;;;;;;;2.08;0.60;;;;;;;;;;5002121;28;20708;-69
2022/09/10 14:40:59;;;;;;;;;;;;;;;;;;5004082;28;20481;-70
2022/09/10 14:43:32;;;;;;;2.05;0.75;;;;;;;;;;5001849;28;20277;-70
2022/09/10 14:46:02;;;;;;;0.90;0.60;;;;;;;;;;5005394;28;20053;-68
2022/09/10 14:48:35;;;;;;;1.38;0.60;;;;;;;;;;5007118;28;20038;-71
2022/09/10 14:51:16;;;;;;;1.77;0.65;;;;;;;;;;5003654;28;20386;-70
2022/09/10 14:53:49;;;;;;;2.05;0.50;;;;;;;;;;5005472;28;20126;-72
2022/09/10 14:56:24;;;;;;;2.95;0.80;;;;;;;;;;5000020;28;20755;-67
2022/09/10 14:58:56;;;;;;;0.95;0.60;;;;;;;;;;5001290;28;20045;-67
2022/09/10 15:01:22;;;;;;;2.92;0.80;;;;;;;;;;5002085;28;20060;-71
2022/09/10 15:03:48;;;;;;;0.90;0.70;;;;;;;;;;4999581;28;20530;-71
2022/09/10 15:06:13;;;;;;;1.33;0.55;;;;;;;;;;5002968;28;20393;-70
2022/09/10 15:08:40;;;;;;;0.98;0.50;;;;;;;;;;5006422;28;20117;-71
2022/09/10 15:11:12;;;;;;;1.90;0.80;;;;;;;;;;5003799;28;20065;-67